Time;durP1;ratioP1;P1;durP2;ratioP2;P2;SDS_P1;SDS_P2;PMS_P1;PMS_P2;Temp;Humidity;BMP_temperature;BMP_pressure;BME280_temperature;BME280_humidity;BME280_pressure;Samples;Min_cycle;Max_cycle;Signal;HPM_P1;HPM_P2
2022/06/12 00:00:25;;;;;;;9.90;2.28;;;15.70;99.90;;;;;;5066736;27;38833;-76
2022/06/12 00:02:51;;;;;;;8.80;2.10;;;15.70;99.90;;;;;;5080361;27;39200;-76
2022/06/12 00:05:19;;;;;;;14.45;3.67;;;15.70;99.90;;;;;;5088063;27;40760;-77
2022/06/12 00:07:45;;;;;;;12.68;2.67;;;15.70;99.90;;;;;;5057336;28;36448;-76
2022/06/12 00:10:13;;;;;;;14.00;3.10;;;15.70;99.90;;;;;;5057395;28;38212;-76
2022/06/12 00:12:42;;;;;;;14.23;2.90;;;15.70;99.90;;;;;;5053494;28;40424;-76
2022/06/12 00:15:11;;;;;;;14.82;3.33;;;15.60;99.90;;;;;;5074373;27;40075;-76
2022/06/12 00:17:38;;;;;;;13.23;2.80;;;15.60;99.90;;;;;;5059389;28;37779;-76
2022/06/12 00:20:05;;;;;;;15.80;2.90;;;15.60;99.90;;;;;;5054220;28;40950;-76
2022/06/12 00:22:32;;;;;;;12.27;3.03;;;15.50;99.90;;;;;;5056435;28;38307;-76
2022/06/12 00:24:58;;;;;;;18.40;2.90;;;15.50;99.90;;;;;;5060694;28;37188;-76
2022/06/12 00:27:24;;;;;;;9.10;2.47;;;15.50;99.90;;;;;;5052805;27;37835;-76
2022/06/12 00:29:51;;;;;;;14.95;2.70;;;15.50;99.90;;;;;;5054754;28;38793;-77
2022/06/12 00:32:18;;;;;;;11.50;2.55;;;15.40;99.90;;;;;;5062098;28;39948;-76
2022/06/12 00:34:49;;;;;;;13.20;2.22;;;15.40;99.90;;;;;;5051022;28;39806;-76
2022/06/12 00:37:18;;;;;;;12.93;2.60;;;15.40;99.90;;;;;;5069689;27;36191;-76
2022/06/12 00:39:46;;;;;;;11.05;3.05;;;15.40;99.90;;;;;;5062813;27;38795;-77
2022/06/12 00:42:34;;;;;;;24.20;3.55;;;15.40;99.90;;;;;;5050942;27;39624;-77
2022/06/12 00:45:33;;;;;;;18.17;3.78;;;15.40;99.90;;;;;;5061083;27;40349;-76
2022/06/12 00:48:19;;;;;;;14.93;3.17;;;15.30;99.90;;;;;;5073602;27;48957;-77
2022/06/12 00:51:15;;;;;;;13.80;3.00;;;15.20;99.90;;;;;;5083635;27;49076;-76
2022/06/12 00:53:48;;;;;;;16.60;3.55;;;15.20;99.90;;;;;;5060211;27;47193;-76
2022/06/12 00:56:16;;;;;;;15.55;4.05;;;15.20;99.90;;;;;;5057012;28;40205;-76
2022/06/12 00:58:51;;;;;;;16.52;3.17;;;15.20;99.90;;;;;;5060676;28;37534;-76
2022/06/12 01:01:32;;;;;;;15.02;2.97;;;15.10;99.90;;;;;;5056663;28;38896;-76
2022/06/12 01:06:47;;;;;;;14.32;3.25;;;15.20;99.90;;;;;;5081925;27;49000;-76
2022/06/12 01:09:22;;;;;;;17.05;3.40;;;15.10;99.90;;;;;;5070970;27;37747;-76
2022/06/12 01:11:51;;;;;;;19.13;4.13;;;15.10;99.90;;;;;;5108493;27;38825;-76
2022/06/12 01:14:20;;;;;;;12.40;3.25;;;15.10;99.90;;;;;;5093380;27;39282;-76
2022/06/12 01:16:49;;;;;;;13.63;3.03;;;15.00;99.90;;;;;;5115567;27;37802;-77
2022/06/12 01:19:27;;;;;;;16.85;3.72;;;15.00;99.90;;;;;;5073648;28;38135;-77
2022/06/12 01:21:53;;;;;;;23.70;4.43;;;14.90;99.90;;;;;;5084555;27;39465;-77
2022/06/12 01:24:53;;;;;;;14.02;3.33;;;14.90;99.90;;;;;;5079566;27;38613;-77
2022/06/12 01:27:52;;;;;;;16.65;3.45;;;14.90;99.90;;;;;;5058150;28;38598;-77
2022/06/12 01:30:23;;;;;;;18.38;4.15;;;14.90;99.90;;;;;;5057875;27;38174;-77
2022/06/12 01:33:01;;;;;;;19.05;4.05;;;14.90;99.90;;;;;;5094414;27;39097;-77
2022/06/12 01:35:46;;;;;;;18.95;3.83;;;14.90;99.90;;;;;;5079248;27;38636;-77
2022/06/12 01:38:21;;;;;;;19.83;4.07;;;14.80;99.90;;;;;;5073769;27;38074;-77
2022/06/12 01:41:02;;;;;;;21.23;4.35;;;14.80;99.90;;;;;;5059694;27;37431;-77
2022/06/12 01:43:39;;;;;;;18.80;4.45;;;14.80;99.90;;;;;;5083436;27;49276;-77
2022/06/12 01:46:23;;;;;;;22.33;5.15;;;14.80;99.90;;;;;;5082143;27;39948;-77
2022/06/12 01:49:14;;;;;;;24.70;5.00;;;14.80;99.90;;;;;;5076886;28;38605;-77
2022/06/12 01:52:06;;;;;;;17.98;4.00;;;14.80;99.90;;;;;;5069069;28;48312;-77
2022/06/12 01:54:44;;;;;;;19.55;4.20;;;14.80;99.90;;;;;;5072028;27;49002;-77
2022/06/12 01:57:22;;;;;;;17.33;4.22;;;14.80;99.90;;;;;;5094098;27;37032;-77
2022/06/12 01:59:58;;;;;;;17.90;4.00;;;14.80;99.90;;;;;;5075346;27;37409;-77
2022/06/12 02:02:55;;;;;;;16.25;3.85;;;14.80;99.90;;;;;;5110979;27;37946;-77
2022/06/12 02:05:59;;;;;;;23.42;4.05;;;14.80;99.90;;;;;;5064627;28;37534;-76
2022/06/12 02:08:36;;;;;;;20.17;4.32;;;14.70;99.90;;;;;;5054501;28;38495;-77
2022/06/12 02:13:58;;;;;;;22.23;4.85;;;14.80;99.90;;;;;;5085458;27;38354;-77
2022/06/12 02:16:37;;;;;;;16.38;3.30;;;14.70;99.90;;;;;;5079004;27;37588;-77
2022/06/12 02:19:17;;;;;;;15.93;4.32;;;14.70;99.90;;;;;;5084322;27;38531;-77
2022/06/12 02:21:52;;;;;;;22.52;4.70;;;14.60;99.90;;;;;;5079560;27;38116;-77
2022/06/12 02:24:31;;;;;;;18.60;4.47;;;14.50;99.90;;;;;;5067196;27;37402;-76
2022/06/12 02:27:00;;;;;;;20.50;4.22;;;14.50;99.90;;;;;;5079234;27;39452;-77
2022/06/12 02:30:07;;;;;;;22.60;3.90;;;14.50;99.90;;;;;;5067167;27;41899;-77
2022/06/12 02:32:38;;;;;;;19.25;4.40;;;14.50;99.90;;;;;;5065220;28;48064;-77
2022/06/12 02:35:10;;;;;;;19.55;4.22;;;14.50;99.90;;;;;;5072889;27;37905;-77
2022/06/12 02:37:44;;;;;;;22.70;5.17;;;14.40;99.90;;;;;;5062167;28;38948;-78
2022/06/12 02:40:19;;;;;;;22.63;4.05;;;14.40;99.90;;;;;;5070286;27;39057;-77
2022/06/12 02:42:49;;;;;;;22.15;4.68;;;14.40;99.90;;;;;;5077701;27;37943;-76
2022/06/12 02:45:25;;;;;;;19.80;4.97;;;14.40;99.90;;;;;;5076797;27;38182;-77
2022/06/12 02:47:52;;;;;;;20.23;3.90;;;14.40;99.90;;;;;;5054536;27;38751;-77
2022/06/12 02:50:22;;;;;;;18.35;4.68;;;14.40;99.90;;;;;;5055508;28;39088;-76
2022/06/12 02:53:02;;;;;;;17.95;4.90;;;14.40;99.90;;;;;;5057254;27;39988;-77
2022/06/12 02:55:41;;;;;;;18.15;4.32;;;14.40;99.90;;;;;;5074458;28;47125;-77
2022/06/12 02:58:47;;;;;;;20.70;4.68;;;14.40;99.90;;;;;;5073335;27;39450;-77
2022/06/12 03:01:20;;;;;;;20.10;5.07;;;14.30;99.90;;;;;;5077628;28;40682;-77
2022/06/12 03:04:01;;;;;;;26.00;4.70;;;14.30;99.90;;;;;;5059830;28;39227;-77
2022/06/12 03:06:29;;;;;;;21.13;5.32;;;14.30;99.90;;;;;;5061745;28;46990;-76
2022/06/12 03:08:58;;;;;;;17.58;5.28;;;14.20;99.90;;;;;;5056838;28;39929;-77
2022/06/12 03:11:33;;;;;;;19.02;4.50;;;14.20;99.90;;;;;;5064597;27;39278;-75
2022/06/12 03:14:00;;;;;;;24.40;4.90;;;14.20;99.90;;;;;;5110144;27;39256;-75
2022/06/12 03:16:30;;;;;;;21.27;4.85;;;14.10;99.90;;;;;;5065210;27;36120;-75
2022/06/12 03:18:59;;;;;;;22.50;4.90;;;14.10;99.90;;;;;;5063596;28;38670;-75
2022/06/12 03:21:39;;;;;;;17.63;5.28;;;14.10;99.90;;;;;;5065478;28;40216;-76
2022/06/12 03:24:19;;;;;;;20.50;4.40;;;14.10;99.90;;;;;;5051904;28;39982;-75
2022/06/12 03:27:15;;;;;;;14.05;5.28;;;14.10;99.90;;;;;;5074633;28;38010;-77
2022/06/12 03:30:01;;;;;;;27.67;5.80;;;14.10;99.90;;;;;;5087710;27;47367;-77
2022/06/12 03:32:38;;;;;;;17.55;4.35;;;14.00;99.90;;;;;;5063537;27;37656;-77
2022/06/12 03:35:25;;;;;;;19.38;4.80;;;14.00;99.90;;;;;;5078265;27;38167;-77
2022/06/12 03:38:03;;;;;;;17.52;4.85;;;14.00;99.90;;;;;;5085156;27;37285;-77
2022/06/12 03:40:41;;;;;;;15.32;5.32;;;14.00;99.90;;;;;;5079950;27;47388;-76
2022/06/12 03:43:26;;;;;;;17.17;5.43;;;14.00;99.90;;;;;;5079774;27;37401;-77
2022/06/12 03:46:05;;;;;;;19.92;5.40;;;14.10;99.90;;;;;;5066605;28;39826;-76
2022/06/12 03:48:43;;;;;;;21.00;5.15;;;14.10;99.90;;;;;;5075492;28;47227;-76
2022/06/12 03:51:13;;;;;;;24.23;5.78;;;14.10;99.90;;;;;;5075859;27;37522;-76
2022/06/12 03:53:43;;;;;;;22.50;5.30;;;14.10;99.90;;;;;;5074108;28;37523;-76
2022/06/12 03:59:17;;;;;;;23.05;5.47;;;14.20;99.90;;;;;;5081104;27;37803;-76
2022/06/12 04:01:45;;;;;;;25.83;5.95;;;14.20;99.90;;;;;;5084514;27;40424;-76
2022/06/12 04:04:14;;;;;;;19.75;5.68;;;14.30;99.90;;;;;;5083166;27;39028;-76
2022/06/12 04:06:41;;;;;;;20.08;5.72;;;14.30;99.90;;;;;;5077839;27;38654;-76
2022/06/12 04:09:21;;;;;;;21.13;6.43;;;14.40;99.90;;;;;;5063248;28;36921;-76
2022/06/12 04:11:56;;;;;;;31.23;7.32;;;14.40;99.90;;;;;;5060968;28;38988;-77
2022/06/12 04:14:28;;;;;;;22.25;5.25;;;14.40;99.90;;;;;;5053946;27;37288;-76
2022/06/12 04:16:58;;;;;;;27.05;5.25;;;14.40;99.90;;;;;;5064292;28;39088;-76
2022/06/12 04:19:26;;;;;;;24.90;6.05;;;14.50;99.90;;;;;;5056651;28;38887;-75
2022/06/12 04:22:01;;;;;;;22.58;5.32;;;14.50;99.90;;;;;;5059365;28;38832;-76
2022/06/12 04:24:38;;;;;;;20.92;5.55;;;14.60;99.90;;;;;;5075901;28;47277;-75
2022/06/12 04:27:27;;;;;;;22.38;5.47;;;14.60;99.90;;;;;;5110890;27;36997;-77
2022/06/12 04:29:58;;;;;;;21.08;5.13;;;14.60;99.90;;;;;;5051681;28;37282;-76
2022/06/12 04:32:25;;;;;;;24.00;5.37;;;14.70;99.90;;;;;;5078071;27;37909;-77
2022/06/12 04:34:53;;;;;;;16.77;5.03;;;14.80;99.90;;;;;;5070158;27;42200;-76
2022/06/12 04:37:22;;;;;;;19.77;5.43;;;14.80;99.90;;;;;;5078149;27;38792;-76
2022/06/12 04:39:50;;;;;;;30.73;6.10;;;14.90;99.90;;;;;;5107356;27;36173;-77
2022/06/12 04:42:19;;;;;;;22.80;5.47;;;15.00;99.90;;;;;;5065831;27;38738;-77
2022/06/12 04:44:46;;;;;;;27.50;6.95;;;15.00;99.90;;;;;;5064204;27;38412;-76
2022/06/12 04:47:15;;;;;;;19.50;5.38;;;15.10;99.90;;;;;;5068801;27;39691;-77
2022/06/12 04:49:41;;;;;;;15.10;4.35;;;15.20;99.90;;;;;;5059661;27;37005;-77
2022/06/12 04:52:10;;;;;;;20.10;4.63;;;15.20;99.90;;;;;;5066718;27;38451;-77
2022/06/12 04:54:38;;;;;;;18.95;4.00;;;15.20;99.90;;;;;;5073338;27;38525;-77
2022/06/12 04:57:05;;;;;;;19.77;4.50;;;15.30;99.90;;;;;;5078023;27;40039;-77
2022/06/12 04:59:31;;;;;;;15.40;4.63;;;15.40;99.90;;;;;;5077511;28;37838;-77
2022/06/12 05:01:57;;;;;;;13.05;3.63;;;15.50;99.90;;;;;;5083142;28;40490;-77
2022/06/12 05:04:25;;;;;;;17.45;4.57;;;15.70;99.90;;;;;;5081733;27;38681;-77
2022/06/12 05:06:51;;;;;;;15.40;3.58;;;16.00;99.90;;;;;;5071896;28;36932;-77
2022/06/12 05:09:21;;;;;;;14.18;3.47;;;16.40;99.90;;;;;;5079611;27;37931;-76
2022/06/12 05:11:47;;;;;;;10.10;2.70;;;16.50;99.90;;;;;;5078391;28;39643;-77
2022/06/12 05:14:14;;;;;;;13.90;2.83;;;16.80;99.90;;;;;;5084976;27;39375;-78
2022/06/12 05:16:57;;;;;;;11.90;2.50;;;17.10;99.90;;;;;;5075283;27;38056;-77
2022/06/12 05:19:28;;;;;;;13.55;3.25;;;17.40;99.90;;;;;;5057986;28;39130;-76
2022/06/12 05:21:55;;;;;;;9.50;2.20;;;17.50;99.90;;;;;;5065092;28;39291;-78
2022/06/12 05:24:21;;;;;;;8.70;2.38;;;17.70;99.90;;;;;;5066067;28;39636;-77
2022/06/12 05:26:50;;;;;;;9.25;2.22;;;17.90;99.90;;;;;;5109665;27;38687;-77
2022/06/12 05:29:25;;;;;;;7.53;2.55;;;18.00;99.90;;;;;;5064011;27;38023;-77
2022/06/12 05:31:53;;;;;;;13.45;2.83;;;18.30;99.90;;;;;;5070423;27;38676;-77
2022/06/12 05:34:20;;;;;;;12.55;2.70;;;18.40;99.90;;;;;;5076598;27;37034;-77
2022/06/12 05:36:47;;;;;;;10.07;2.83;;;18.60;99.90;;;;;;5077262;27;38685;-77
2022/06/12 05:39:14;;;;;;;9.40;2.42;;;18.70;99.90;;;;;;5076756;27;37122;-77
2022/06/12 05:41:40;;;;;;;6.63;2.33;;;18.70;99.90;;;;;;5069698;27;39402;-77
2022/06/12 05:44:07;;;;;;;7.97;2.20;;;18.70;99.90;;;;;;5056307;27;38661;-76
2022/06/12 05:46:34;;;;;;;7.47;2.40;;;18.90;99.90;;;;;;5068012;28;38851;-76
2022/06/12 05:49:00;;;;;;;6.50;2.05;;;19.10;99.90;;;;;;5105930;27;38265;-77
2022/06/12 05:51:26;;;;;;;10.10;2.10;;;19.00;99.90;;;;;;5079496;28;41076;-76
2022/06/12 05:53:52;;;;;;;6.38;2.30;;;19.10;99.90;;;;;;5076415;27;40876;-76
2022/06/12 05:56:23;;;;;;;10.52;2.40;;;19.20;99.90;;;;;;5059363;27;39962;-81
2022/06/12 05:58:49;;;;;;;6.18;2.10;;;19.30;99.90;;;;;;5051001;27;38806;-77
2022/06/12 06:01:19;;;;;;;6.22;1.60;;;19.20;99.90;;;;;;5076612;27;38629;-77
2022/06/12 06:03:45;;;;;;;7.45;1.95;;;19.30;99.90;;;;;;5077116;28;39816;-77
2022/06/12 06:06:17;;;;;;;10.70;2.38;;;19.40;99.90;;;;;;5052526;28;38654;-77
2022/06/12 06:08:44;;;;;;;8.40;2.50;;;19.30;99.90;;;;;;5056716;28;37418;-77
2022/06/12 06:11:10;;;;;;;8.85;2.00;;;19.40;99.90;;;;;;5054667;28;39045;-77
2022/06/12 06:13:37;;;;;;;5.80;1.90;;;19.50;99.90;;;;;;5072512;27;38586;-77
2022/06/12 06:16:03;;;;;;;8.50;2.10;;;19.50;99.90;;;;;;5080788;27;37333;-77
2022/06/12 06:18:29;;;;;;;8.70;1.90;;;19.50;99.90;;;;;;5079529;27;37503;-76
2022/06/12 06:20:56;;;;;;;8.35;2.00;;;19.70;99.90;;;;;;5077824;27;38987;-77
2022/06/12 06:23:22;;;;;;;8.90;2.47;;;19.80;99.90;;;;;;5063007;28;39917;-77
2022/06/12 06:25:48;;;;;;;11.43;2.72;;;19.90;99.90;;;;;;5059602;28;37585;-77
2022/06/12 06:28:15;;;;;;;9.18;2.80;;;19.60;99.90;;;;;;5059293;28;37373;-76
2022/06/12 06:30:41;;;;;;;10.93;2.30;;;19.50;99.90;;;;;;5102628;27;40814;-77
2022/06/12 06:33:07;;;;;;;9.52;2.20;;;19.50;99.90;;;;;;5072740;27;41261;-78
2022/06/12 06:35:35;;;;;;;6.70;2.05;;;19.60;99.90;;;;;;5068251;28;37968;-77
2022/06/12 06:38:01;;;;;;;7.70;1.95;;;19.80;99.90;;;;;;5077694;27;37889;-77
2022/06/12 06:40:30;;;;;;;8.05;2.65;;;19.90;99.90;;;;;;5074069;27;41110;-77
2022/06/12 06:42:56;;;;;;;8.63;2.30;;;19.90;99.90;;;;;;5055956;27;39143;-78
2022/06/12 06:48:09;;;;;;;6.82;2.00;;;20.10;99.90;;;;;;5073122;27;38442;-76
2022/06/12 06:50:36;;;;;;;10.43;2.47;;;20.00;99.90;;;;;;5059434;28;37773;-77
2022/06/12 06:53:03;;;;;;;8.32;2.28;;;20.00;99.90;;;;;;5069409;27;38395;-76
2022/06/12 06:55:31;;;;;;;7.65;2.28;;;20.10;99.90;;;;;;5062544;27;48424;-77
2022/06/12 06:57:57;;;;;;;6.20;1.80;;;20.00;99.90;;;;;;5065198;28;37508;-76
2022/06/12 07:00:29;;;;;;;6.78;2.15;;;20.10;99.90;;;;;;5085963;27;38376;-77
2022/06/12 07:02:55;;;;;;;6.55;2.05;;;20.30;99.90;;;;;;5085534;27;39003;-76
2022/06/12 07:05:22;;;;;;;6.57;2.00;;;20.40;99.90;;;;;;5084760;27;38241;-76
2022/06/12 07:07:48;;;;;;;7.90;2.10;;;20.30;99.90;;;;;;5091193;27;37861;-76
2022/06/12 07:10:19;;;;;;;9.13;2.40;;;20.60;99.90;;;;;;5081260;27;37883;-77
2022/06/12 07:12:45;;;;;;;6.93;2.28;;;20.70;99.90;;;;;;5084786;27;39108;-79
2022/06/12 07:15:12;;;;;;;9.27;2.60;;;21.00;99.90;;;;;;5082084;27;39950;-78
2022/06/12 07:17:40;;;;;;;7.05;2.13;;;21.20;99.90;;;;;;5085263;27;37838;-79
2022/06/12 07:20:08;;;;;;;7.60;2.63;;;21.40;99.90;;;;;;5081838;27;39545;-78
2022/06/12 07:22:35;;;;;;;11.27;2.67;;;21.50;99.90;;;;;;5081095;27;39250;-77
2022/06/12 07:25:01;;;;;;;5.43;1.73;;;21.70;99.90;;;;;;5082819;27;39817;-77
2022/06/12 07:27:27;;;;;;;7.72;1.95;;;21.90;99.90;;;;;;5073273;27;48977;-76
2022/06/12 07:29:53;;;;;;;6.63;2.28;;;21.60;99.90;;;;;;5074553;27;38340;-77
2022/06/12 07:32:19;;;;;;;6.72;2.05;;;21.40;99.90;;;;;;5073131;27;38427;-79
2022/06/12 07:34:46;;;;;;;7.95;2.40;;;21.10;99.90;;;;;;5077939;27;37815;-77
2022/06/12 07:37:12;;;;;;;6.15;1.63;;;21.20;99.90;;;;;;5075919;27;37229;-77
2022/06/12 07:39:39;;;;;;;13.52;2.95;;;21.40;99.90;;;;;;5087289;27;38883;-77
2022/06/12 07:42:05;;;;;;;7.90;1.67;;;21.60;99.90;;;;;;5083245;27;38680;-77
2022/06/12 07:44:34;;;;;;;5.07;1.55;;;21.80;99.90;;;;;;5087454;28;39126;-77
2022/06/12 07:47:01;;;;;;;5.45;2.08;;;21.90;99.90;;;;;;5082361;27;38228;-77
2022/06/12 07:49:29;;;;;;;8.13;1.83;;;22.10;99.90;;;;;;5062707;27;48440;-78
2022/06/12 07:51:58;;;;;;;6.18;1.70;;;22.30;99.90;;;;;;5064746;28;38143;-77
2022/06/12 07:54:24;;;;;;;7.97;2.20;;;22.10;99.90;;;;;;5061792;28;38795;-78
2022/06/12 07:56:51;;;;;;;6.88;2.05;;;21.90;99.90;;;;;;5063129;28;38562;-77
2022/06/12 07:59:17;;;;;;;11.30;2.30;;;21.80;99.90;;;;;;5081104;27;37714;-78
2022/06/12 08:01:44;;;;;;;5.72;1.73;;;21.70;99.90;;;;;;5078389;27;39002;-76
2022/06/12 08:04:15;;;;;;;6.70;2.40;;;21.40;99.90;;;;;;5080093;27;38975;-76
2022/06/12 08:06:43;;;;;;;8.05;2.08;;;21.60;99.90;;;;;;5081435;28;37410;-76
2022/06/12 08:09:11;;;;;;;6.15;2.13;;;21.60;99.90;;;;;;5082279;27;40536;-76
2022/06/12 08:11:42;;;;;;;8.13;2.08;;;21.80;99.90;;;;;;5088335;27;36988;-76
2022/06/12 08:14:11;;;;;;;8.33;2.20;;;21.70;99.90;;;;;;5081961;27;38999;-76
2022/06/12 08:16:37;;;;;;;9.80;1.90;;;21.90;99.90;;;;;;5070308;28;36599;-75
2022/06/12 08:20:24;;;;;;;5.15;1.67;;;21.90;99.90;;;;;;5078801;27;39015;-75
2022/06/12 08:21:51;;;;;;;6.10;1.65;;;22.10;99.90;;;;;;5080760;28;39166;-81
2022/06/12 08:24:17;;;;;;;10.18;2.80;;;22.20;99.90;;;;;;5082642;27;37692;-74
2022/06/12 08:26:44;;;;;;;8.27;1.80;;;22.40;99.90;;;;;;5076205;28;36470;-75
2022/06/12 08:29:12;;;;;;;11.63;2.63;;;22.50;99.90;;;;;;5076640;27;38887;-76
2022/06/12 08:31:46;;;;;;;8.98;2.20;;;22.60;99.90;;;;;;5079195;27;39164;-76
2022/06/12 08:34:22;;;;;;;8.23;2.35;;;22.60;99.90;;;;;;5071802;27;37982;-75
2022/06/12 08:36:51;;;;;;;7.93;2.22;;;22.50;99.90;;;;;;5083827;28;36381;-75
2022/06/12 08:39:23;;;;;;;7.65;1.98;;;22.50;99.90;;;;;;5072908;27;37632;-74
2022/06/12 08:42:12;;;;;;;6.18;1.90;;;22.70;99.90;;;;;;5055863;28;36863;-75
2022/06/12 08:44:50;;;;;;;9.55;2.60;;;22.70;99.90;;;;;;5077076;27;48479;-76
2022/06/12 08:47:29;;;;;;;9.73;2.53;;;22.30;99.90;;;;;;5084408;27;36645;-75
2022/06/12 08:50:17;;;;;;;6.82;2.00;;;22.10;99.90;;;;;;5092508;28;37750;-76
2022/06/12 08:52:53;;;;;;;9.77;2.45;;;22.00;99.90;;;;;;5078601;28;47097;-78
2022/06/12 08:55:33;;;;;;;6.93;1.90;;;21.50;99.90;;;;;;5078375;27;36863;-74
2022/06/12 08:58:26;;;;;;;8.50;2.50;;;21.50;99.90;;;;;;5076025;27;37011;-76
2022/06/12 09:00:54;;;;;;;8.70;1.90;;;22.10;99.90;;;;;;5057518;27;47000;-76
2022/06/12 09:03:26;;;;;;;5.65;2.03;;;22.30;99.90;;;;;;5083989;27;37451;-76
2022/06/12 09:06:17;;;;;;;6.90;1.88;;;22.60;99.90;;;;;;5086984;28;38807;-76
2022/06/12 09:09:14;;;;;;;14.10;2.15;;;22.10;99.90;;;;;;5075824;28;47546;-75
2022/06/12 09:11:46;;;;;;;8.27;2.28;;;21.70;99.90;;;;;;5079272;27;48995;-76
2022/06/12 09:14:27;;;;;;;;;;;21.90;99.90;;;;;;5075691;27;38435;-75
2022/06/12 09:17:02;;;;;;;8.15;1.85;;;21.80;99.90;;;;;;5071685;28;36789;-76
2022/06/12 09:19:59;;;;;;;8.43;1.90;;;21.50;99.90;;;;;;5075950;27;49061;-76
2022/06/12 09:23:00;;;;;;;7.93;2.40;;;21.10;99.90;;;;;;5113768;27;37645;-75
2022/06/12 09:25:33;;;;;;;12.23;2.40;;;21.00;99.90;;;;;;5063197;28;38920;-75
2022/06/12 09:28:13;;;;;;;8.68;1.88;;;21.40;99.90;;;;;;5067009;28;37089;-75
2022/06/12 09:30:46;;;;;;;8.60;2.17;;;21.90;99.90;;;;;;5080887;27;48523;-75
2022/06/12 09:33:22;;;;;;;9.57;2.33;;;22.20;99.90;;;;;;5087973;27;39729;-75
2022/06/12 09:36:10;;;;;;;14.50;2.22;;;21.90;99.90;;;;;;5086633;27;39183;-75
2022/06/12 09:38:37;;;;;;;5.72;1.65;;;22.00;99.90;;;;;;5083380;27;48189;-75
2022/06/12 09:41:13;;;;;;;5.95;1.85;;;22.50;99.90;;;;;;5074828;27;36555;-76
2022/06/12 09:43:54;;;;;;;7.57;2.20;;;22.90;99.90;;;;;;5079422;27;39134;-75
2022/06/12 09:46:36;;;;;;;6.38;1.75;;;23.00;99.90;;;;;;5081436;27;38338;-75
2022/06/12 09:49:21;;;;;;;4.97;1.83;;;23.20;99.90;;;;;;5084595;27;38087;-74
2022/06/12 09:52:16;;;;;;;8.05;1.80;;;22.60;99.90;;;;;;5067237;28;36999;-75
2022/06/12 09:54:43;;;;;;;8.68;1.80;;;22.10;99.90;;;;;;5103195;27;47209;-74
2022/06/12 09:57:09;;;;;;;7.03;1.80;;;22.40;99.90;;;;;;5064268;28;40554;-75
2022/06/12 09:59:51;;;;;;;8.80;1.92;;;22.10;99.90;;;;;;5059253;28;39093;-76
2022/06/12 10:02:29;;;;;;;5.38;1.65;;;22.50;99.90;;;;;;5059746;28;37645;-75
2022/06/12 10:05:15;;;;;;;7.10;1.80;;;22.90;99.90;;;;;;5070533;28;39992;-75
2022/06/12 10:07:55;;;;;;;5.32;1.73;;;22.60;99.90;;;;;;5076441;27;47311;-76
2022/06/12 10:10:33;;;;;;;7.18;2.05;;;21.90;99.90;;;;;;5042276;28;39039;-76
2022/06/12 10:13:07;;;;;;;9.05;2.03;;;21.50;99.90;;;;;;5059266;28;38601;-76
2022/06/12 10:15:40;;;;;;;8.85;2.38;;;21.70;99.90;;;;;;5073050;27;47236;-75
2022/06/12 10:18:16;;;;;;;11.85;2.38;;;21.40;99.90;;;;;;5081028;27;38264;-76
2022/06/12 10:20:54;;;;;;;8.32;1.98;;;21.60;99.90;;;;;;5062754;28;36822;-75
2022/06/12 10:23:22;;;;;;;9.65;2.33;;;21.50;99.90;;;;;;5065991;27;36037;-75
2022/06/12 10:25:56;;;;;;;9.55;2.40;;;21.20;99.90;;;;;;5080416;27;39939;-74
2022/06/12 10:28:30;;;;;;;8.13;2.30;;;20.90;99.90;;;;;;5080262;27;38668;-75
2022/06/12 10:31:05;;;;;;;7.80;2.28;;;21.20;99.90;;;;;;5080183;28;38202;-75
2022/06/12 10:33:47;;;;;;;9.63;2.10;;;22.00;99.90;;;;;;5076484;27;48471;-75
2022/06/12 10:36:19;;;;;;;;;;;22.10;99.90;;;;;;5072859;27;39286;-74
2022/06/12 10:38:45;;;;;;;7.38;2.30;;;22.10;99.90;;;;;;5079126;27;38284;-74
2022/06/12 10:41:33;;;;;;;7.32;2.03;;;22.20;99.90;;;;;;5064043;28;39246;-74
2022/06/12 10:43:59;;;;;;;6.78;1.85;;;22.80;99.90;;;;;;5069854;28;36544;-74
2022/06/12 10:46:30;;;;;;;6.25;1.85;;;23.40;99.90;;;;;;5080100;27;38971;-75
2022/06/12 10:49:15;;;;;;;9.73;1.83;;;23.50;99.90;;;;;;5087502;27;38743;-74
2022/06/12 10:51:43;;;;;;;5.32;1.73;;;24.00;99.90;;;;;;5078980;27;49031;-75
2022/06/12 10:54:13;;;;;;;6.28;1.90;;;23.90;99.90;;;;;;5078377;27;37582;-75
2022/06/12 10:57:17;;;;;;;6.57;1.90;;;23.70;99.90;;;;;;5084214;27;39865;-75
2022/06/12 10:59:59;;;;;;;4.10;1.15;;;23.30;99.90;;;;;;5080704;28;48157;-75
2022/06/12 11:02:51;;;;;;;5.88;1.60;;;22.90;99.90;;;;;;5079741;27;38091;-74
2022/06/12 11:05:30;;;;;;;6.68;1.23;;;22.90;99.90;;;;;;5078941;27;38203;-74
2022/06/12 11:08:17;;;;;;;6.10;1.48;;;23.00;99.90;;;;;;5062066;28;39064;-76
2022/06/12 11:10:50;;;;;;;3.53;1.30;;;23.10;99.90;;;;;;5097458;27;47306;-76
2022/06/12 11:13:48;;;;;;;4.90;1.42;;;23.40;99.90;;;;;;5074874;27;38522;-75
2022/06/12 11:16:43;;;;;;;4.90;1.58;;;23.40;99.90;;;;;;5077782;27;35724;-76
2022/06/12 11:19:37;;;;;;;4.20;1.63;;;23.30;99.90;;;;;;5095345;27;37975;-74
2022/06/12 11:22:31;;;;;;;5.82;1.65;;;23.20;99.90;;;;;;5068584;28;37507;-76
2022/06/12 11:25:25;;;;;;;4.22;1.52;;;23.30;99.90;;;;;;5057740;28;38722;-75
2022/06/12 11:28:34;;;;;;;4.57;1.20;;;23.30;99.90;;;;;;5084141;27;48594;-74
2022/06/12 11:31:19;;;;;;;5.60;1.20;;;23.30;99.90;;;;;;5058930;27;47954;-74
2022/06/12 11:34:15;;;;;;;4.82;1.70;;;23.00;99.90;;;;;;5083108;27;49019;-74
2022/06/12 11:37:07;;;;;;;3.53;1.20;;;23.00;99.90;;;;;;5079759;27;47415;-75
2022/06/12 11:39:47;;;;;;;5.78;1.42;;;23.10;99.90;;;;;;5093294;27;47382;-76
2022/06/12 11:42:20;;;;;;;6.05;1.40;;;23.20;99.90;;;;;;5075278;27;38268;-76
2022/06/12 11:44:49;;;;;;;6.35;1.60;;;23.40;99.90;;;;;;5074631;28;39857;-75
2022/06/12 11:47:44;;;;;;;3.95;1.30;;;23.70;99.90;;;;;;5062601;27;39664;-75
2022/06/12 11:50:17;;;;;;;4.03;1.38;;;23.60;99.90;;;;;;5066397;28;38874;-76
2022/06/12 11:52:44;;;;;;;7.18;1.92;;;23.00;99.90;;;;;;5066888;28;39732;-77
2022/06/12 11:55:25;;;;;;;5.45;1.85;;;22.80;99.90;;;;;;5063735;28;38232;-75
2022/06/12 11:58:12;;;;;;;8.80;2.35;;;22.90;99.90;;;;;;5064356;27;39796;-74
2022/06/12 12:00:57;;;;;;;6.32;1.50;;;22.90;99.90;;;;;;5060114;27;48044;-76
2022/06/12 12:03:52;;;;;;;5.38;1.45;;;23.00;99.90;;;;;;5076782;27;37925;-76
2022/06/12 12:06:33;;;;;;;9.00;1.90;;;23.50;99.90;;;;;;5078575;27;39617;-76
2022/06/12 12:09:12;;;;;;;3.83;1.25;;;23.80;99.90;;;;;;5082252;27;39219;-76
2022/06/12 12:11:46;;;;;;;4.95;1.20;;;23.80;99.90;;;;;;5075900;27;48882;-76
2022/06/12 12:14:24;;;;;;;6.97;1.60;;;23.40;99.90;;;;;;5104930;27;39694;-75
2022/06/12 12:17:03;;;;;;;7.57;1.23;;;22.70;99.90;;;;;;5081213;27;39063;-76
2022/06/12 12:19:33;;;;;;;3.95;1.15;;;22.80;99.90;;;;;;5063373;27;48171;-76
2022/06/12 12:22:06;;;;;;;5.53;1.10;;;23.00;99.90;;;;;;5083051;27;38531;-75
2022/06/12 12:24:40;;;;;;;2.10;1.02;;;23.50;99.90;;;;;;5062428;27;49765;-75
2022/06/12 12:27:30;;;;;;;5.88;1.63;;;23.30;99.90;;;;;;5085768;27;39006;-75
2022/06/12 12:29:59;;;;;;;2.45;0.88;;;23.30;99.90;;;;;;5102358;27;38280;-76
2022/06/12 12:32:25;;;;;;;3.00;0.90;;;23.70;99.90;;;;;;5084863;27;37772;-76
2022/06/12 12:34:54;;;;;;;2.72;0.90;;;24.00;99.90;;;;;;5078272;28;37831;-76
2022/06/12 12:43:02;;;;;;;4.35;1.35;;;24.10;99.90;;;;;;5071850;28;37878;-75
2022/06/12 12:45:32;;;;;;;7.82;1.40;;;24.30;99.90;;;;;;5082758;28;47374;-76
2022/06/12 12:48:04;;;;;;;5.45;1.40;;;24.30;99.90;;;;;;5076734;28;40010;-76
2022/06/12 12:50:42;;;;;;;4.43;1.45;;;24.20;99.90;;;;;;5083489;28;47340;-76
2022/06/12 12:53:26;;;;;;;7.25;1.80;;;24.20;99.90;;;;;;5070373;27;38308;-76
2022/06/12 12:56:11;;;;;;;3.35;1.40;;;24.50;99.90;;;;;;5078809;28;39475;-76
2022/06/12 12:58:54;;;;;;;5.45;1.77;;;23.80;99.90;;;;;;5076201;27;47278;-76
2022/06/12 13:01:33;;;;;;;5.45;1.83;;;23.20;99.90;;;;;;5075324;28;37683;-76
2022/06/12 13:04:15;;;;;;;6.60;1.65;;;22.50;99.90;;;;;;5065719;28;38437;-76
2022/06/12 13:06:52;;;;;;;6.60;1.95;;;22.70;99.90;;;;;;5083149;27;48537;-77
2022/06/12 13:09:30;;;;;;;7.80;1.60;;;23.00;99.90;;;;;;5085343;27;39173;-80
2022/06/12 13:12:21;;;;;;;5.85;1.52;;;23.10;99.90;;;;;;5080696;27;38275;-75
2022/06/12 13:15:21;;;;;;;5.20;1.70;;;23.50;99.90;;;;;;5066482;28;47224;-77
2022/06/12 13:18:07;;;;;;;6.20;2.15;;;22.60;99.90;;;;;;5065902;28;47146;-76
2022/06/12 13:21:08;;;;;;;7.80;2.15;;;22.20;99.90;;;;;;5083653;28;47001;-77
2022/06/12 13:24:11;;;;;;;5.20;1.75;;;22.30;99.90;;;;;;5023600;28;49576;-77
2022/06/12 13:26:38;;;;;;;;;;;22.60;99.90;;;;;;5084591;27;47236;-76
2022/06/12 13:29:05;;;;;;;8.20;2.05;;;22.30;99.90;;;;;;5084976;27;39691;-76
2022/06/12 13:31:37;;;;;;;8.73;1.98;;;22.60;99.90;;;;;;5086513;28;37998;-76
2022/06/12 13:34:04;;;;;;;10.82;2.38;;;22.80;99.90;;;;;;5075947;27;37925;-76
2022/06/12 13:36:40;;;;;;;8.85;1.90;;;22.90;99.90;;;;;;5055803;28;37387;-75
2022/06/12 13:39:37;;;;;;;8.27;2.22;;;23.00;99.90;;;;;;5078085;28;37679;-76